sensor_id;sensor_type;location;lat;lon;timestamp;P1;durP1;ratioP1;P2;durP2;ratioP2
12511;SDS011;6321;53.798;10.382;2023-05-07T00:00:37;15.83;;;12.07;;
12511;SDS011;6321;53.798;10.382;2023-05-07T00:03:03;14.10;;;11.27;;
12511;SDS011;6321;53.798;10.382;2023-05-07T00:05:29;14.10;;;12.00;;
12511;SDS011;6321;53.798;10.382;2023-05-07T00:07:55;14.20;;;11.97;;
12511;SDS011;6321;53.798;10.382;2023-05-07T00:10:21;15.87;;;12.03;;
12511;SDS011;6321;53.798;10.382;2023-05-07T00:12:47;16.50;;;13.17;;
12511;SDS011;6321;53.798;10.382;2023-05-07T00:15:13;14.67;;;11.90;;
12511;SDS011;6321;53.798;10.382;2023-05-07T00:17:39;15.50;;;12.57;;
12511;SDS011;6321;53.798;10.382;2023-05-07T00:20:05;15.27;;;12.23;;
12511;SDS011;6321;53.798;10.382;2023-05-07T00:22:31;13.90;;;12.50;;
12511;SDS011;6321;53.798;10.382;2023-05-07T00:24:57;15.77;;;13.37;;
12511;SDS011;6321;53.798;10.382;2023-05-07T00:27:24;16.70;;;13.90;;
12511;SDS011;6321;53.798;10.382;2023-05-07T00:29:50;18.17;;;14.47;;
12511;SDS011;6321;53.798;10.382;2023-05-07T00:32:16;18.73;;;13.90;;
12511;SDS011;6321;53.798;10.382;2023-05-07T00:34:42;19.17;;;14.20;;
12511;SDS011;6321;53.798;10.382;2023-05-07T00:37:08;17.33;;;13.67;;
12511;SDS011;6321;53.798;10.382;2023-05-07T00:39:35;16.47;;;13.47;;
12511;SDS011;6321;53.798;10.382;2023-05-07T00:42:01;17.03;;;14.30;;
12511;SDS011;6321;53.798;10.382;2023-05-07T00:44:27;17.10;;;14.40;;
12511;SDS011;6321;53.798;10.382;2023-05-07T00:46:54;16.90;;;14.37;;
12511;SDS011;6321;53.798;10.382;2023-05-07T00:49:21;18.97;;;15.17;;
12511;SDS011;6321;53.798;10.382;2023-05-07T00:51:47;19.23;;;15.40;;
12511;SDS011;6321;53.798;10.382;2023-05-07T00:54:13;20.57;;;16.07;;
12511;SDS011;6321;53.798;10.382;2023-05-07T00:56:39;19.33;;;15.67;;
12511;SDS011;6321;53.798;10.382;2023-05-07T00:59:05;19.30;;;15.70;;
12511;SDS011;6321;53.798;10.382;2023-05-07T01:01:32;20.20;;;15.27;;
12511;SDS011;6321;53.798;10.382;2023-05-07T01:03:58;22.67;;;15.67;;
12511;SDS011;6321;53.798;10.382;2023-05-07T01:06:24;20.03;;;16.13;;
12511;SDS011;6321;53.798;10.382;2023-05-07T01:08:52;18.63;;;15.27;;
12511;SDS011;6321;53.798;10.382;2023-05-07T01:11:21;19.97;;;15.23;;
12511;SDS011;6321;53.798;10.382;2023-05-07T01:13:47;21.30;;;16.83;;
12511;SDS011;6321;53.798;10.382;2023-05-07T01:16:15;20.00;;;16.00;;
12511;SDS011;6321;53.798;10.382;2023-05-07T01:18:41;19.40;;;15.93;;
12511;SDS011;6321;53.798;10.382;2023-05-07T01:21:07;21.67;;;15.93;;
12511;SDS011;6321;53.798;10.382;2023-05-07T01:23:34;18.33;;;14.67;;
12511;SDS011;6321;53.798;10.382;2023-05-07T01:26:02;22.20;;;16.27;;
12511;SDS011;6321;53.798;10.382;2023-05-07T01:28:28;18.50;;;14.87;;
12511;SDS011;6321;53.798;10.382;2023-05-07T01:30:55;19.87;;;15.83;;
12511;SDS011;6321;53.798;10.382;2023-05-07T01:33:22;21.27;;;16.00;;
12511;SDS011;6321;53.798;10.382;2023-05-07T01:35:52;20.80;;;15.53;;
12511;SDS011;6321;53.798;10.382;2023-05-07T01:38:19;21.33;;;15.93;;
12511;SDS011;6321;53.798;10.382;2023-05-07T01:40:47;23.67;;;16.97;;
12511;SDS011;6321;53.798;10.382;2023-05-07T01:43:13;18.63;;;14.90;;
12511;SDS011;6321;53.798;10.382;2023-05-07T01:45:39;19.43;;;15.53;;
12511;SDS011;6321;53.798;10.382;2023-05-07T01:48:05;19.17;;;14.03;;
12511;SDS011;6321;53.798;10.382;2023-05-07T01:50:32;21.43;;;15.90;;
12511;SDS011;6321;53.798;10.382;2023-05-07T01:52:59;21.00;;;16.50;;
12511;SDS011;6321;53.798;10.382;2023-05-07T01:55:27;18.77;;;15.50;;
12511;SDS011;6321;53.798;10.382;2023-05-07T01:57:53;19.20;;;15.33;;
12511;SDS011;6321;53.798;10.382;2023-05-07T02:00:19;19.17;;;15.77;;
12511;SDS011;6321;53.798;10.382;2023-05-07T02:02:45;20.13;;;14.70;;
12511;SDS011;6321;53.798;10.382;2023-05-07T02:05:11;16.83;;;14.17;;
12511;SDS011;6321;53.798;10.382;2023-05-07T02:07:37;18.10;;;14.60;;
12511;SDS011;6321;53.798;10.382;2023-05-07T02:10:03;15.80;;;13.27;;
12511;SDS011;6321;53.798;10.382;2023-05-07T02:12:30;16.10;;;13.03;;
12511;SDS011;6321;53.798;10.382;2023-05-07T02:14:55;15.93;;;13.43;;
12511;SDS011;6321;53.798;10.382;2023-05-07T02:17:22;14.13;;;12.10;;
12511;SDS011;6321;53.798;10.382;2023-05-07T02:19:47;14.07;;;11.03;;
12511;SDS011;6321;53.798;10.382;2023-05-07T02:22:13;16.30;;;13.17;;
12511;SDS011;6321;53.798;10.382;2023-05-07T02:24:40;14.63;;;13.07;;
12511;SDS011;6321;53.798;10.382;2023-05-07T02:27:06;14.07;;;12.57;;
12511;SDS011;6321;53.798;10.382;2023-05-07T02:29:32;15.87;;;12.03;;
12511;SDS011;6321;53.798;10.382;2023-05-07T02:31:58;15.73;;;13.07;;
12511;SDS011;6321;53.798;10.382;2023-05-07T02:34:24;14.43;;;11.57;;
12511;SDS011;6321;53.798;10.382;2023-05-07T02:36:50;14.53;;;12.03;;
12511;SDS011;6321;53.798;10.382;2023-05-07T02:39:16;15.60;;;12.63;;
12511;SDS011;6321;53.798;10.382;2023-05-07T02:41:42;15.27;;;12.50;;
12511;SDS011;6321;53.798;10.382;2023-05-07T02:44:08;14.50;;;12.73;;
12511;SDS011;6321;53.798;10.382;2023-05-07T02:46:34;12.63;;;10.37;;
12511;SDS011;6321;53.798;10.382;2023-05-07T02:49:00;16.97;;;13.13;;
12511;SDS011;6321;53.798;10.382;2023-05-07T02:51:26;12.00;;;10.53;;
12511;SDS011;6321;53.798;10.382;2023-05-07T02:53:52;13.93;;;11.77;;
12511;SDS011;6321;53.798;10.382;2023-05-07T02:56:18;12.70;;;10.47;;
12511;SDS011;6321;53.798;10.382;2023-05-07T02:58:44;11.53;;;10.33;;
12511;SDS011;6321;53.798;10.382;2023-05-07T03:01:10;11.47;;;9.93;;
12511;SDS011;6321;53.798;10.382;2023-05-07T03:03:38;11.57;;;10.40;;
12511;SDS011;6321;53.798;10.382;2023-05-07T03:06:04;12.20;;;10.07;;
12511;SDS011;6321;53.798;10.382;2023-05-07T03:08:31;10.43;;;9.33;;
12511;SDS011;6321;53.798;10.382;2023-05-07T03:10:57;11.40;;;9.60;;
12511;SDS011;6321;53.798;10.382;2023-05-07T03:13:23;12.77;;;10.30;;
12511;SDS011;6321;53.798;10.382;2023-05-07T03:15:49;10.90;;;9.80;;
12511;SDS011;6321;53.798;10.382;2023-05-07T03:18:15;13.07;;;10.33;;
12511;SDS011;6321;53.798;10.382;2023-05-07T03:20:41;10.63;;;9.43;;
12511;SDS011;6321;53.798;10.382;2023-05-07T03:23:07;11.03;;;9.70;;
12511;SDS011;6321;53.798;10.382;2023-05-07T03:25:33;10.60;;;9.00;;
12511;SDS011;6321;53.798;10.382;2023-05-07T03:27:59;11.57;;;9.50;;
12511;SDS011;6321;53.798;10.382;2023-05-07T03:30:25;12.80;;;9.80;;
12511;SDS011;6321;53.798;10.382;2023-05-07T03:32:51;12.10;;;8.47;;
12511;SDS011;6321;53.798;10.382;2023-05-07T03:35:17;10.80;;;9.00;;
12511;SDS011;6321;53.798;10.382;2023-05-07T03:37:43;12.23;;;9.67;;
12511;SDS011;6321;53.798;10.382;2023-05-07T03:40:09;11.77;;;8.73;;
12511;SDS011;6321;53.798;10.382;2023-05-07T03:42:37;10.23;;;7.93;;
12511;SDS011;6321;53.798;10.382;2023-05-07T03:45:03;9.73;;;8.70;;
12511;SDS011;6321;53.798;10.382;2023-05-07T03:47:29;10.70;;;9.00;;
12511;SDS011;6321;53.798;10.382;2023-05-07T03:49:55;9.43;;;8.53;;
12511;SDS011;6321;53.798;10.382;2023-05-07T03:52:21;11.13;;;9.43;;
12511;SDS011;6321;53.798;10.382;2023-05-07T03:54:50;9.57;;;8.53;;
12511;SDS011;6321;53.798;10.382;2023-05-07T03:57:16;10.13;;;9.00;;
12511;SDS011;6321;53.798;10.382;2023-05-07T03:59:42;11.87;;;9.63;;
12511;SDS011;6321;53.798;10.382;2023-05-07T04:02:08;11.90;;;9.23;;
12511;SDS011;6321;53.798;10.382;2023-05-07T04:04:34;10.03;;;8.90;;
12511;SDS011;6321;53.798;10.382;2023-05-07T04:07:00;12.40;;;9.57;;
12511;SDS011;6321;53.798;10.382;2023-05-07T04:09:26;11.10;;;9.47;;
12511;SDS011;6321;53.798;10.382;2023-05-07T04:11:52;11.20;;;9.63;;
12511;SDS011;6321;53.798;10.382;2023-05-07T04:14:18;10.27;;;9.27;;
12511;SDS011;6321;53.798;10.382;2023-05-07T04:16:44;11.40;;;9.90;;
12511;SDS011;6321;53.798;10.382;2023-05-07T04:19:10;12.37;;;10.10;;
12511;SDS011;6321;53.798;10.382;2023-05-07T04:21:36;12.37;;;10.27;;
12511;SDS011;6321;53.798;10.382;2023-05-07T04:24:02;13.03;;;10.33;;
12511;SDS011;6321;53.798;10.382;2023-05-07T04:26:29;10.97;;;9.87;;
12511;SDS011;6321;53.798;10.382;2023-05-07T04:28:55;12.30;;;9.90;;
12511;SDS011;6321;53.798;10.382;2023-05-07T04:31:22;10.93;;;9.23;;
12511;SDS011;6321;53.798;10.382;2023-05-07T04:33:48;10.83;;;8.63;;
12511;SDS011;6321;53.798;10.382;2023-05-07T04:36:15;10.93;;;8.57;;
12511;SDS011;6321;53.798;10.382;2023-05-07T04:38:41;8.93;;;7.03;;
12511;SDS011;6321;53.798;10.382;2023-05-07T04:41:08;9.80;;;8.50;;
12511;SDS011;6321;53.798;10.382;2023-05-07T04:43:34;11.17;;;8.70;;
12511;SDS011;6321;53.798;10.382;2023-05-07T04:46:00;11.40;;;8.63;;
12511;SDS011;6321;53.798;10.382;2023-05-07T04:48:26;10.30;;;8.33;;
12511;SDS011;6321;53.798;10.382;2023-05-07T04:50:53;9.20;;;8.20;;
12511;SDS011;6321;53.798;10.382;2023-05-07T04:53:19;8.37;;;7.27;;
12511;SDS011;6321;53.798;10.382;2023-05-07T04:55:46;9.97;;;8.33;;
12511;SDS011;6321;53.798;10.382;2023-05-07T04:58:12;9.37;;;8.13;;
12511;SDS011;6321;53.798;10.382;2023-05-07T05:00:38;9.60;;;7.67;;
12511;SDS011;6321;53.798;10.382;2023-05-07T05:03:04;12.03;;;8.60;;
12511;SDS011;6321;53.798;10.382;2023-05-07T05:05:30;9.37;;;8.13;;
12511;SDS011;6321;53.798;10.382;2023-05-07T05:07:56;9.30;;;8.30;;
12511;SDS011;6321;53.798;10.382;2023-05-07T05:10:22;10.00;;;8.63;;
12511;SDS011;6321;53.798;10.382;2023-05-07T05:12:48;10.30;;;9.03;;
12511;SDS011;6321;53.798;10.382;2023-05-07T05:15:14;9.47;;;8.47;;
12511;SDS011;6321;53.798;10.382;2023-05-07T05:17:40;9.47;;;8.30;;
12511;SDS011;6321;53.798;10.382;2023-05-07T05:20:06;11.83;;;8.13;;
12511;SDS011;6321;53.798;10.382;2023-05-07T05:22:34;9.17;;;8.17;;
12511;SDS011;6321;53.798;10.382;2023-05-07T05:25:00;8.80;;;7.90;;
12511;SDS011;6321;53.798;10.382;2023-05-07T05:27:26;9.87;;;7.73;;
12511;SDS011;6321;53.798;10.382;2023-05-07T05:29:52;9.73;;;8.73;;
12511;SDS011;6321;53.798;10.382;2023-05-07T05:32:18;8.87;;;7.73;;
12511;SDS011;6321;53.798;10.382;2023-05-07T05:34:44;9.80;;;7.77;;
12511;SDS011;6321;53.798;10.382;2023-05-07T05:37:10;9.93;;;8.53;;
12511;SDS011;6321;53.798;10.382;2023-05-07T05:39:36;10.43;;;8.50;;
12511;SDS011;6321;53.798;10.382;2023-05-07T05:42:02;9.07;;;8.07;;
12511;SDS011;6321;53.798;10.382;2023-05-07T05:44:28;9.77;;;8.33;;
12511;SDS011;6321;53.798;10.382;2023-05-07T05:46:54;9.67;;;8.50;;
12511;SDS011;6321;53.798;10.382;2023-05-07T05:49:22;12.30;;;9.43;;
12511;SDS011;6321;53.798;10.382;2023-05-07T05:51:48;13.00;;;9.20;;
12511;SDS011;6321;53.798;10.382;2023-05-07T05:54:14;10.20;;;8.77;;
12511;SDS011;6321;53.798;10.382;2023-05-07T05:56:40;11.87;;;9.53;;
12511;SDS011;6321;53.798;10.382;2023-05-07T05:59:06;9.37;;;8.37;;
12511;SDS011;6321;53.798;10.382;2023-05-07T06:01:33;9.83;;;8.83;;
12511;SDS011;6321;53.798;10.382;2023-05-07T06:03:59;10.07;;;8.83;;
12511;SDS011;6321;53.798;10.382;2023-05-07T06:06:25;11.73;;;7.60;;
12511;SDS011;6321;53.798;10.382;2023-05-07T06:08:51;10.00;;;8.33;;
12511;SDS011;6321;53.798;10.382;2023-05-07T06:11:17;9.60;;;8.33;;
12511;SDS011;6321;53.798;10.382;2023-05-07T06:13:43;8.47;;;7.43;;
12511;SDS011;6321;53.798;10.382;2023-05-07T06:16:09;11.23;;;8.10;;
12511;SDS011;6321;53.798;10.382;2023-05-07T06:18:35;9.10;;;7.77;;
12511;SDS011;6321;53.798;10.382;2023-05-07T06:21:01;8.60;;;7.03;;
12511;SDS011;6321;53.798;10.382;2023-05-07T06:23:27;9.43;;;7.33;;
12511;SDS011;6321;53.798;10.382;2023-05-07T06:25:53;8.70;;;7.60;;
12511;SDS011;6321;53.798;10.382;2023-05-07T06:28:19;8.93;;;7.43;;
12511;SDS011;6321;53.798;10.382;2023-05-07T06:30:45;9.27;;;7.57;;
12511;SDS011;6321;53.798;10.382;2023-05-07T06:33:11;8.63;;;7.67;;
12511;SDS011;6321;53.798;10.382;2023-05-07T06:35:37;8.20;;;6.73;;
12511;SDS011;6321;53.798;10.382;2023-05-07T06:38:03;8.20;;;7.40;;
12511;SDS011;6321;53.798;10.382;2023-05-07T06:40:28;7.43;;;6.63;;
12511;SDS011;6321;53.798;10.382;2023-05-07T06:42:54;8.57;;;6.97;;
12511;SDS011;6321;53.798;10.382;2023-05-07T06:45:20;8.27;;;7.23;;
12511;SDS011;6321;53.798;10.382;2023-05-07T06:47:46;9.90;;;6.50;;
12511;SDS011;6321;53.798;10.382;2023-05-07T06:50:12;7.97;;;6.83;;
12511;SDS011;6321;53.798;10.382;2023-05-07T06:52:40;8.30;;;6.60;;
12511;SDS011;6321;53.798;10.382;2023-05-07T06:55:07;8.20;;;6.30;;
12511;SDS011;6321;53.798;10.382;2023-05-07T06:57:33;7.40;;;6.70;;
12511;SDS011;6321;53.798;10.382;2023-05-07T06:59:59;8.03;;;6.47;;
12511;SDS011;6321;53.798;10.382;2023-05-07T07:02:24;7.87;;;6.80;;
12511;SDS011;6321;53.798;10.382;2023-05-07T07:04:50;8.73;;;7.23;;
12511;SDS011;6321;53.798;10.382;2023-05-07T07:07:16;7.67;;;6.50;;
12511;SDS011;6321;53.798;10.382;2023-05-07T07:09:42;7.87;;;6.37;;
12511;SDS011;6321;53.798;10.382;2023-05-07T07:12:08;7.80;;;6.37;;
12511;SDS011;6321;53.798;10.382;2023-05-07T07:14:34;7.27;;;6.40;;
12511;SDS011;6321;53.798;10.382;2023-05-07T07:17:00;7.17;;;6.47;;
12511;SDS011;6321;53.798;10.382;2023-05-07T07:19:26;7.07;;;6.27;;
12511;SDS011;6321;53.798;10.382;2023-05-07T07:21:52;6.40;;;5.80;;
12511;SDS011;6321;53.798;10.382;2023-05-07T07:24:18;6.67;;;6.07;;
12511;SDS011;6321;53.798;10.382;2023-05-07T07:26:46;6.87;;;6.17;;
12511;SDS011;6321;53.798;10.382;2023-05-07T07:29:12;8.87;;;6.50;;
12511;SDS011;6321;53.798;10.382;2023-05-07T07:31:38;7.37;;;6.73;;
12511;SDS011;6321;53.798;10.382;2023-05-07T07:34:04;8.03;;;6.97;;
12511;SDS011;6321;53.798;10.382;2023-05-07T07:36:30;7.33;;;6.37;;
12511;SDS011;6321;53.798;10.382;2023-05-07T07:38:56;7.90;;;7.10;;
12511;SDS011;6321;53.798;10.382;2023-05-07T07:41:22;7.43;;;6.73;;
12511;SDS011;6321;53.798;10.382;2023-05-07T07:43:48;7.70;;;6.90;;
12511;SDS011;6321;53.798;10.382;2023-05-07T07:46:14;9.80;;;6.77;;
12511;SDS011;6321;53.798;10.382;2023-05-07T07:48:40;9.40;;;6.40;;
12511;SDS011;6321;53.798;10.382;2023-05-07T07:51:06;7.97;;;6.90;;
12511;SDS011;6321;53.798;10.382;2023-05-07T07:53:31;7.70;;;5.87;;
12511;SDS011;6321;53.798;10.382;2023-05-07T07:55:57;6.23;;;5.63;;
12511;SDS011;6321;53.798;10.382;2023-05-07T07:58:23;5.90;;;5.40;;
12511;SDS011;6321;53.798;10.382;2023-05-07T08:00:49;6.20;;;5.60;;
12511;SDS011;6321;53.798;10.382;2023-05-07T08:03:16;6.00;;;5.37;;
12511;SDS011;6321;53.798;10.382;2023-05-07T08:05:42;6.60;;;5.90;;
12511;SDS011;6321;53.798;10.382;2023-05-07T08:08:08;7.57;;;5.57;;
12511;SDS011;6321;53.798;10.382;2023-05-07T08:10:34;6.00;;;5.40;;
12511;SDS011;6321;53.798;10.382;2023-05-07T08:13:03;5.13;;;4.73;;
12511;SDS011;6321;53.798;10.382;2023-05-07T08:15:29;7.23;;;4.80;;
12511;SDS011;6321;53.798;10.382;2023-05-07T08:17:55;6.80;;;5.60;;
12511;SDS011;6321;53.798;10.382;2023-05-07T08:20:22;7.77;;;5.90;;
12511;SDS011;6321;53.798;10.382;2023-05-07T08:22:48;6.77;;;6.07;;
12511;SDS011;6321;53.798;10.382;2023-05-07T08:25:14;6.03;;;5.43;;
12511;SDS011;6321;53.798;10.382;2023-05-07T08:27:40;6.27;;;5.63;;
12511;SDS011;6321;53.798;10.382;2023-05-07T08:30:06;6.33;;;5.73;;
12511;SDS011;6321;53.798;10.382;2023-05-07T08:32:32;6.67;;;5.87;;
12511;SDS011;6321;53.798;10.382;2023-05-07T08:34:58;5.93;;;5.43;;
12511;SDS011;6321;53.798;10.382;2023-05-07T08:37:24;6.57;;;5.97;;
12511;SDS011;6321;53.798;10.382;2023-05-07T08:39:50;7.87;;;6.73;;
12511;SDS011;6321;53.798;10.382;2023-05-07T08:42:16;7.17;;;6.47;;
12511;SDS011;6321;53.798;10.382;2023-05-07T08:44:43;8.53;;;6.93;;
12511;SDS011;6321;53.798;10.382;2023-05-07T08:47:11;6.77;;;6.10;;
12511;SDS011;6321;53.798;10.382;2023-05-07T08:49:38;7.80;;;6.17;;
12511;SDS011;6321;53.798;10.382;2023-05-07T08:52:04;7.47;;;6.03;;
12511;SDS011;6321;53.798;10.382;2023-05-07T08:54:30;6.17;;;5.57;;
12511;SDS011;6321;53.798;10.382;2023-05-07T08:56:56;7.60;;;6.37;;
12511;SDS011;6321;53.798;10.382;2023-05-07T08:59:22;6.27;;;5.67;;
12511;SDS011;6321;53.798;10.382;2023-05-07T09:01:48;6.80;;;6.20;;
12511;SDS011;6321;53.798;10.382;2023-05-07T09:04:14;6.27;;;5.67;;
12511;SDS011;6321;53.798;10.382;2023-05-07T09:06:40;6.87;;;6.13;;
12511;SDS011;6321;53.798;10.382;2023-05-07T09:09:07;7.00;;;6.30;;
12511;SDS011;6321;53.798;10.382;2023-05-07T09:11:33;5.50;;;5.00;;
12511;SDS011;6321;53.798;10.382;2023-05-07T09:13:59;5.33;;;4.73;;
12511;SDS011;6321;53.798;10.382;2023-05-07T09:16:28;5.87;;;5.37;;
12511;SDS011;6321;53.798;10.382;2023-05-07T09:18:56;5.57;;;5.07;;
12511;SDS011;6321;53.798;10.382;2023-05-07T09:21:23;5.73;;;5.10;;
12511;SDS011;6321;53.798;10.382;2023-05-07T09:23:50;5.53;;;4.93;;
12511;SDS011;6321;53.798;10.382;2023-05-07T09:26:16;5.50;;;5.00;;
12511;SDS011;6321;53.798;10.382;2023-05-07T09:28:42;5.33;;;4.70;;
12511;SDS011;6321;53.798;10.382;2023-05-07T09:31:08;5.70;;;5.20;;
12511;SDS011;6321;53.798;10.382;2023-05-07T09:33:35;5.03;;;4.63;;
12511;SDS011;6321;53.798;10.382;2023-05-07T09:36:07;5.27;;;4.77;;
12511;SDS011;6321;53.798;10.382;2023-05-07T09:38:34;6.83;;;4.97;;
12511;SDS011;6321;53.798;10.382;2023-05-07T09:41:02;5.77;;;5.17;;
12511;SDS011;6321;53.798;10.382;2023-05-07T09:43:31;5.77;;;5.17;;
12511;SDS011;6321;53.798;10.382;2023-05-07T09:45:59;5.63;;;5.03;;
12511;SDS011;6321;53.798;10.382;2023-05-07T09:48:26;5.50;;;5.00;;
12511;SDS011;6321;53.798;10.382;2023-05-07T09:50:53;5.93;;;5.40;;
12511;SDS011;6321;53.798;10.382;2023-05-07T09:53:23;6.07;;;5.13;;
12511;SDS011;6321;53.798;10.382;2023-05-07T09:55:50;5.67;;;4.97;;
12511;SDS011;6321;53.798;10.382;2023-05-07T09:58:16;5.67;;;5.17;;
12511;SDS011;6321;53.798;10.382;2023-05-07T10:00:44;6.47;;;5.37;;
12511;SDS011;6321;53.798;10.382;2023-05-07T10:03:11;5.43;;;5.03;;
12511;SDS011;6321;53.798;10.382;2023-05-07T10:05:37;5.40;;;4.93;;
12511;SDS011;6321;53.798;10.382;2023-05-07T10:08:04;6.93;;;5.00;;
12511;SDS011;6321;53.798;10.382;2023-05-07T10:10:30;5.63;;;5.03;;
12511;SDS011;6321;53.798;10.382;2023-05-07T10:12:56;5.13;;;4.73;;
12511;SDS011;6321;53.798;10.382;2023-05-07T10:15:22;5.50;;;5.00;;
12511;SDS011;6321;53.798;10.382;2023-05-07T10:17:49;4.87;;;4.40;;
12511;SDS011;6321;53.798;10.382;2023-05-07T10:20:16;5.33;;;4.90;;
12511;SDS011;6321;53.798;10.382;2023-05-07T10:22:43;4.93;;;4.53;;
12511;SDS011;6321;53.798;10.382;2023-05-07T10:25:14;6.33;;;4.37;;
12511;SDS011;6321;53.798;10.382;2023-05-07T10:27:40;4.77;;;4.37;;
12511;SDS011;6321;53.798;10.382;2023-05-07T10:30:10;5.10;;;3.83;;
12511;SDS011;6321;53.798;10.382;2023-05-07T10:32:48;4.57;;;4.17;;
12511;SDS011;6321;53.798;10.382;2023-05-07T10:35:19;4.63;;;4.17;;
12511;SDS011;6321;53.798;10.382;2023-05-07T10:37:45;4.43;;;4.03;;
12511;SDS011;6321;53.798;10.382;2023-05-07T10:40:12;4.73;;;4.07;;
12511;SDS011;6321;53.798;10.382;2023-05-07T10:42:38;5.10;;;4.60;;
12511;SDS011;6321;53.798;10.382;2023-05-07T10:45:11;3.90;;;3.57;;
12511;SDS011;6321;53.798;10.382;2023-05-07T10:48:04;4.80;;;4.20;;
12511;SDS011;6321;53.798;10.382;2023-05-07T10:50:24;4.10;;;3.80;;
12511;SDS011;6321;53.798;10.382;2023-05-07T10:55:35;6.00;;;3.93;;
12511;SDS011;6321;53.798;10.382;2023-05-07T11:00:46;3.80;;;3.50;;
12511;SDS011;6321;53.798;10.382;2023-05-07T11:03:13;4.20;;;3.80;;
12511;SDS011;6321;53.798;10.382;2023-05-07T11:05:40;3.40;;;3.10;;
12511;SDS011;6321;53.798;10.382;2023-05-07T11:08:06;3.70;;;3.27;;
12511;SDS011;6321;53.798;10.382;2023-05-07T11:10:52;3.50;;;3.17;;
12511;SDS011;6321;53.798;10.382;2023-05-07T11:13:19;4.50;;;3.57;;
12511;SDS011;6321;53.798;10.382;2023-05-07T11:16:05;6.50;;;3.63;;
12511;SDS011;6321;53.798;10.382;2023-05-07T11:18:45;3.67;;;3.07;;
12511;SDS011;6321;53.798;10.382;2023-05-07T11:21:12;3.83;;;3.40;;
12511;SDS011;6321;53.798;10.382;2023-05-07T11:26:06;4.83;;;2.70;;
12511;SDS011;6321;53.798;10.382;2023-05-07T11:28:42;3.13;;;2.93;;
12511;SDS011;6321;53.798;10.382;2023-05-07T11:31:08;3.97;;;2.70;;
12511;SDS011;6321;53.798;10.382;2023-05-07T11:33:34;2.73;;;2.53;;
12511;SDS011;6321;53.798;10.382;2023-05-07T11:36:04;4.33;;;2.97;;
12511;SDS011;6321;53.798;10.382;2023-05-07T11:38:30;5.90;;;2.77;;
12511;SDS011;6321;53.798;10.382;2023-05-07T11:41:00;3.43;;;3.13;;
12511;SDS011;6321;53.798;10.382;2023-05-07T11:43:26;3.83;;;2.50;;
12511;SDS011;6321;53.798;10.382;2023-05-07T11:45:52;2.80;;;2.60;;
12511;SDS011;6321;53.798;10.382;2023-05-07T11:48:19;2.70;;;2.50;;
12511;SDS011;6321;53.798;10.382;2023-05-07T11:50:53;2.63;;;2.30;;
12511;SDS011;6321;53.798;10.382;2023-05-07T11:53:20;3.17;;;2.50;;
12511;SDS011;6321;53.798;10.382;2023-05-07T11:55:46;2.50;;;2.27;;
12511;SDS011;6321;53.798;10.382;2023-05-07T11:58:12;2.80;;;2.60;;
12511;SDS011;6321;53.798;10.382;2023-05-07T12:00:49;2.73;;;2.50;;
12511;SDS011;6321;53.798;10.382;2023-05-07T12:03:15;2.90;;;2.70;;
12511;SDS011;6321;53.798;10.382;2023-05-07T12:05:40;2.77;;;2.57;;
12511;SDS011;6321;53.798;10.382;2023-05-07T12:08:07;2.90;;;2.70;;
12511;SDS011;6321;53.798;10.382;2023-05-07T12:10:33;5.30;;;3.37;;
12511;SDS011;6321;53.798;10.382;2023-05-07T12:12:59;2.47;;;2.27;;
12511;SDS011;6321;53.798;10.382;2023-05-07T12:15:25;3.10;;;2.50;;
12511;SDS011;6321;53.798;10.382;2023-05-07T12:17:51;2.63;;;2.43;;
12511;SDS011;6321;53.798;10.382;2023-05-07T12:20:17;5.03;;;3.10;;
12511;SDS011;6321;53.798;10.382;2023-05-07T12:22:43;2.70;;;2.50;;
12511;SDS011;6321;53.798;10.382;2023-05-07T12:25:09;3.00;;;2.67;;
12511;SDS011;6321;53.798;10.382;2023-05-07T12:27:36;2.60;;;2.40;;
12511;SDS011;6321;53.798;10.382;2023-05-07T12:30:03;3.23;;;2.93;;
12511;SDS011;6321;53.798;10.382;2023-05-07T12:32:29;2.90;;;2.70;;
12511;SDS011;6321;53.798;10.382;2023-05-07T12:34:55;2.90;;;2.70;;
12511;SDS011;6321;53.798;10.382;2023-05-07T12:37:25;2.70;;;2.50;;
12511;SDS011;6321;53.798;10.382;2023-05-07T12:40:07;2.97;;;2.67;;
12511;SDS011;6321;53.798;10.382;2023-05-07T12:42:37;2.93;;;2.67;;
12511;SDS011;6321;53.798;10.382;2023-05-07T12:45:12;2.57;;;2.37;;
12511;SDS011;6321;53.798;10.382;2023-05-07T12:47:39;3.70;;;2.90;;
12511;SDS011;6321;53.798;10.382;2023-05-07T12:50:05;3.07;;;2.87;;
12511;SDS011;6321;53.798;10.382;2023-05-07T12:52:31;3.77;;;3.43;;
12511;SDS011;6321;53.798;10.382;2023-05-07T12:55:03;3.77;;;2.60;;
12511;SDS011;6321;53.798;10.382;2023-05-07T12:57:30;3.20;;;3.00;;
12511;SDS011;6321;53.798;10.382;2023-05-07T12:59:57;3.20;;;2.60;;
12511;SDS011;6321;53.798;10.382;2023-05-07T13:02:31;3.00;;;2.70;;
12511;SDS011;6321;53.798;10.382;2023-05-07T13:04:57;2.87;;;2.60;;
12511;SDS011;6321;53.798;10.382;2023-05-07T13:07:24;6.90;;;3.40;;
12511;SDS011;6321;53.798;10.382;2023-05-07T13:09:50;2.60;;;2.40;;
12511;SDS011;6321;53.798;10.382;2023-05-07T13:12:16;4.03;;;3.47;;
12511;SDS011;6321;53.798;10.382;2023-05-07T13:14:42;2.60;;;2.40;;
12511;SDS011;6321;53.798;10.382;2023-05-07T13:17:08;4.37;;;2.90;;
12511;SDS011;6321;53.798;10.382;2023-05-07T13:19:34;3.20;;;2.90;;
12511;SDS011;6321;53.798;10.382;2023-05-07T13:22:02;3.00;;;2.63;;
12511;SDS011;6321;53.798;10.382;2023-05-07T13:24:28;3.50;;;3.20;;
12511;SDS011;6321;53.798;10.382;2023-05-07T13:26:54;2.73;;;2.53;;
12511;SDS011;6321;53.798;10.382;2023-05-07T13:29:20;4.27;;;2.93;;
12511;SDS011;6321;53.798;10.382;2023-05-07T13:31:53;7.80;;;5.33;;
12511;SDS011;6321;53.798;10.382;2023-05-07T13:34:19;4.50;;;2.20;;
12511;SDS011;6321;53.798;10.382;2023-05-07T13:36:45;4.33;;;3.90;;
12511;SDS011;6321;53.798;10.382;2023-05-07T13:39:11;2.77;;;2.53;;
12511;SDS011;6321;53.798;10.382;2023-05-07T13:41:37;2.90;;;2.70;;
12511;SDS011;6321;53.798;10.382;2023-05-07T13:44:03;4.50;;;3.63;;
12511;SDS011;6321;53.798;10.382;2023-05-07T13:46:29;2.53;;;2.30;;
12511;SDS011;6321;53.798;10.382;2023-05-07T13:48:55;2.73;;;2.50;;
12511;SDS011;6321;53.798;10.382;2023-05-07T13:51:21;2.60;;;2.40;;
12511;SDS011;6321;53.798;10.382;2023-05-07T13:53:47;3.03;;;2.27;;
12511;SDS011;6321;53.798;10.382;2023-05-07T13:56:13;4.27;;;2.50;;
12511;SDS011;6321;53.798;10.382;2023-05-07T13:58:40;3.43;;;2.60;;
12511;SDS011;6321;53.798;10.382;2023-05-07T14:01:06;3.53;;;2.00;;
12511;SDS011;6321;53.798;10.382;2023-05-07T14:03:32;2.73;;;2.30;;
12511;SDS011;6321;53.798;10.382;2023-05-07T14:05:58;2.77;;;2.30;;
12511;SDS011;6321;53.798;10.382;2023-05-07T14:08:26;4.57;;;2.40;;
12511;SDS011;6321;53.798;10.382;2023-05-07T14:10:52;2.67;;;2.33;;
12511;SDS011;6321;53.798;10.382;2023-05-07T14:13:18;2.60;;;2.40;;
12511;SDS011;6321;53.798;10.382;2023-05-07T14:15:44;3.30;;;2.53;;
12511;SDS011;6321;53.798;10.382;2023-05-07T14:18:12;3.17;;;2.80;;
12511;SDS011;6321;53.798;10.382;2023-05-07T14:20:38;2.60;;;2.40;;
12511;SDS011;6321;53.798;10.382;2023-05-07T14:23:04;3.07;;;2.53;;
12511;SDS011;6321;53.798;10.382;2023-05-07T14:25:30;2.40;;;2.17;;
12511;SDS011;6321;53.798;10.382;2023-05-07T14:27:56;3.13;;;2.70;;
12511;SDS011;6321;53.798;10.382;2023-05-07T14:30:22;3.03;;;2.83;;
12511;SDS011;6321;53.798;10.382;2023-05-07T14:32:49;3.70;;;2.70;;
12511;SDS011;6321;53.798;10.382;2023-05-07T14:35:15;2.70;;;2.50;;
12511;SDS011;6321;53.798;10.382;2023-05-07T14:37:41;4.97;;;2.40;;
12511;SDS011;6321;53.798;10.382;2023-05-07T14:40:07;2.63;;;2.43;;
12511;SDS011;6321;53.798;10.382;2023-05-07T14:42:33;2.60;;;2.23;;
12511;SDS011;6321;53.798;10.382;2023-05-07T14:44:59;2.83;;;2.20;;